createdAt,value
2023-04-18T00:00:06.554Z,57.1
2023-04-18T00:01:07.455Z,57
2023-04-18T00:02:08.552Z,57.1
2023-04-18T00:03:09.855Z,57.1
2023-04-18T00:04:10.702Z,57
2023-04-18T00:05:11.554Z,56.9
2023-04-18T00:06:12.663Z,56.9
2023-04-18T00:07:13.473Z,57
2023-04-18T00:08:14.553Z,57.1
2023-04-18T00:09:15.572Z,57.2
2023-04-18T00:10:16.566Z,57.2
2023-04-18T00:11:17.595Z,57
2023-04-18T00:12:18.448Z,56.9
2023-04-18T00:13:19.600Z,56.8
2023-04-18T00:14:20.576Z,56.8
2023-04-18T00:15:21.479Z,56.7
2023-04-18T00:16:22.502Z,56.8
2023-04-18T00:17:23.547Z,56.8
2023-04-18T00:18:24.552Z,56.8
2023-04-18T00:19:25.536Z,56.6
2023-04-18T00:20:26.526Z,56.6
2023-04-18T00:21:27.512Z,56.5
2023-04-18T00:22:28.542Z,56.5
2023-04-18T00:23:29.534Z,56.6
2023-04-18T00:24:30.519Z,56.6
2023-04-18T00:25:31.524Z,56.4
2023-04-18T00:26:32.608Z,56.4
2023-04-18T00:27:33.583Z,56.5
2023-04-18T00:28:34.597Z,56.6
2023-04-18T00:29:35.555Z,56.6
2023-04-18T00:30:36.557Z,56.7
2023-04-18T00:31:37.470Z,56.7
2023-04-18T00:32:38.610Z,56.7
2023-04-18T00:33:39.532Z,56.7
2023-04-18T00:34:40.629Z,56.8
2023-04-18T00:35:41.497Z,56.9
2023-04-18T00:36:42.521Z,57
2023-04-18T00:37:43.464Z,56.9
2023-04-18T00:38:44.495Z,56.9
2023-04-18T00:39:45.624Z,56.9
2023-04-18T00:40:46.545Z,56.9
2023-04-18T00:41:47.519Z,56.8
2023-04-18T00:42:48.553Z,56.7
2023-04-18T00:43:49.555Z,56.6
2023-04-18T00:44:50.589Z,56.6
2023-04-18T00:45:51.551Z,56.6
2023-04-18T00:46:52.508Z,56.6
2023-04-18T00:47:53.596Z,56.7
2023-04-18T00:48:54.533Z,56.8
2023-04-18T00:49:55.601Z,56.9
2023-04-18T00:50:56.544Z,57.2
2023-04-18T00:51:57.553Z,57.2
2023-04-18T00:52:58.533Z,57.3
2023-04-18T00:53:59.554Z,57.2
2023-04-18T00:55:00.614Z,57.2
2023-04-18T00:56:01.600Z,57.1
2023-04-18T00:57:02.681Z,57.1
2023-04-18T00:58:03.668Z,57
2023-04-18T00:59:04.514Z,56.9
2023-04-18T01:00:05.873Z,56.9
2023-04-18T01:01:06.624Z,56.9
2023-04-18T01:02:07.592Z,56.8
2023-04-18T01:03:08.784Z,56.9
2023-04-18T01:04:09.826Z,57
2023-04-18T01:05:10.636Z,57.1
2023-04-18T01:06:11.535Z,57.1
2023-04-18T01:07:12.514Z,57.1
2023-04-18T01:08:13.527Z,57.1
2023-04-18T01:09:14.553Z,57.1
2023-04-18T01:10:15.508Z,57.1
2023-04-18T01:11:16.497Z,57.3
2023-04-18T01:12:17.564Z,57.4
2023-04-18T01:13:18.534Z,57.3
2023-04-18T01:14:19.560Z,57.4
2023-04-18T01:15:20.613Z,57.4
2023-04-18T01:16:21.567Z,57.2
2023-04-18T01:17:22.590Z,57.1
2023-04-18T01:18:23.690Z,57.2
2023-04-18T01:19:24.641Z,57.2
2023-04-18T01:20:25.533Z,57.2
2023-04-18T01:21:26.595Z,57.1
2023-04-18T01:22:27.454Z,57.3
2023-04-18T01:23:28.493Z,57.3
2023-04-18T01:24:29.561Z,57.2
2023-04-18T01:25:30.572Z,57.1
2023-04-18T01:26:31.568Z,57.2
2023-04-18T01:27:32.635Z,57.2
2023-04-18T01:28:33.573Z,57.1
2023-04-18T01:29:34.634Z,57
2023-04-18T01:30:35.515Z,57.1
2023-04-18T01:31:36.675Z,57
2023-04-18T01:32:37.568Z,57.3
2023-04-18T01:33:38.573Z,57.3
2023-04-18T01:34:39.578Z,57.1
2023-04-18T01:35:40.555Z,57.3
2023-04-18T01:36:41.542Z,57.3
2023-04-18T01:37:42.553Z,57.2
2023-04-18T01:38:43.542Z,57.2
2023-04-18T01:39:44.594Z,57.2
2023-04-18T01:40:45.480Z,57.1
2023-04-18T01:41:46.521Z,57
2023-04-18T01:42:47.616Z,56.6
2023-04-18T01:43:48.559Z,56.8
2023-04-18T01:44:49.682Z,56.9
2023-04-18T01:45:50.975Z,57
2023-04-18T01:46:51.581Z,56.8
2023-04-18T01:47:52.593Z,57
2023-04-18T01:48:53.515Z,57.1
2023-04-18T01:49:54.754Z,57.2
2023-04-18T01:50:55.565Z,57.4
2023-04-18T01:51:56.552Z,57.3
2023-04-18T01:52:57.548Z,57
2023-04-18T01:53:58.563Z,57
2023-04-18T01:54:59.551Z,56.9
2023-04-18T01:56:00.580Z,56.9
2023-04-18T01:57:01.577Z,56.8
2023-04-18T01:58:02.538Z,56.9
2023-04-18T01:59:03.588Z,57.1
2023-04-18T02:00:04.672Z,57.1
2023-04-18T02:01:05.648Z,57
2023-04-18T02:02:06.677Z,56.2
2023-04-18T02:03:07.780Z,56.7
2023-04-18T02:04:08.759Z,56.8
2023-04-18T02:05:09.688Z,57
2023-04-18T02:06:10.591Z,56.9
2023-04-18T02:07:11.612Z,56.9
2023-04-18T02:08:12.596Z,56.9
2023-04-18T02:09:13.469Z,56.9
2023-04-18T02:10:14.570Z,56.8
2023-04-18T02:11:15.595Z,56.7
2023-04-18T02:12:16.582Z,56.7
2023-04-18T02:13:17.575Z,56.8
2023-04-18T02:14:18.618Z,56.8
2023-04-18T02:15:19.578Z,56.7
2023-04-18T02:16:20.711Z,56.7
2023-04-18T02:17:21.743Z,56.9
2023-04-18T02:18:22.575Z,56.9
2023-04-18T02:19:23.571Z,56.9
2023-04-18T02:20:24.595Z,56.8
2023-04-18T02:21:25.594Z,56.9
2023-04-18T02:22:26.650Z,56.7
2023-04-18T02:23:27.596Z,56.8
2023-04-18T02:24:28.574Z,56.8
2023-04-18T02:25:29.542Z,56.7
2023-04-18T02:26:30.617Z,56.6
2023-04-18T02:27:31.656Z,56.7
2023-04-18T02:28:32.618Z,56.8
2023-04-18T02:29:33.629Z,56.6
2023-04-18T02:30:34.604Z,56.6
2023-04-18T02:31:35.689Z,56.8
2023-04-18T02:32:36.649Z,56.8
2023-04-18T02:33:37.555Z,56.8
2023-04-18T02:34:38.560Z,56.7
2023-04-18T02:35:39.661Z,56.8
2023-04-18T02:36:40.637Z,56.8
2023-04-18T02:37:41.607Z,56.2
2023-04-18T02:38:42.555Z,56.5
2023-04-18T02:39:43.648Z,56.7
2023-04-18T02:40:44.598Z,56.9
2023-04-18T02:41:45.553Z,57
2023-04-18T02:42:46.636Z,57
2023-04-18T02:43:47.593Z,56.5
2023-04-18T02:44:48.593Z,56.7
2023-04-18T02:45:49.621Z,56.9
2023-04-18T02:46:50.595Z,56.8
2023-04-18T02:47:55.765Z,57
2023-04-18T02:48:52.694Z,57
2023-04-18T02:49:53.559Z,56.9
2023-04-18T02:50:54.596Z,56.8
2023-04-18T02:51:55.787Z,56.8
2023-04-18T02:52:56.555Z,56.8
2023-04-18T02:53:57.634Z,56.7
2023-04-18T02:54:58.642Z,56.7
2023-04-18T02:55:59.554Z,56.6
2023-04-18T02:57:00.758Z,56.5
2023-04-18T02:58:01.702Z,56.6
2023-04-18T02:59:02.679Z,56.5
2023-04-18T03:00:03.681Z,56.7
2023-04-18T03:01:04.678Z,56.8
2023-04-18T03:02:05.650Z,57
2023-04-18T03:03:06.710Z,57.2
2023-04-18T03:04:07.674Z,57.2
2023-04-18T03:05:08.858Z,57.1
2023-04-18T03:06:09.592Z,57.1
2023-04-18T03:07:10.599Z,57.1
2023-04-18T03:08:11.643Z,57.1
2023-04-18T03:09:12.655Z,57
2023-04-18T03:10:13.797Z,57
2023-04-18T03:11:14.633Z,57.1
2023-04-18T03:12:15.776Z,57
2023-04-18T03:13:16.592Z,57.2
2023-04-18T03:14:17.677Z,57.3
2023-04-18T03:15:18.739Z,57.4
2023-04-18T03:16:19.638Z,57.4
2023-04-18T03:17:20.814Z,57.5
2023-04-18T03:18:21.651Z,57.7
2023-04-18T03:19:22.530Z,57.7
2023-04-18T03:20:23.593Z,57.7
2023-04-18T03:21:24.673Z,57.7
2023-04-18T03:22:25.554Z,57.6
2023-04-18T03:23:26.685Z,57.6
2023-04-18T03:24:27.594Z,57.8
2023-04-18T03:25:28.759Z,57.5
2023-04-18T03:26:29.612Z,57.7
2023-04-18T03:27:30.593Z,57.7
2023-04-18T03:28:31.623Z,57.6
2023-04-18T03:29:32.641Z,57.6
2023-04-18T03:30:33.621Z,57.5
2023-04-18T03:31:34.782Z,57.4
2023-04-18T03:32:35.596Z,57.4
2023-04-18T03:33:36.570Z,56.8
2023-04-18T03:34:37.580Z,57.1
2023-04-18T03:35:38.612Z,57.2
2023-04-18T03:36:39.572Z,57.1
2023-04-18T03:37:40.608Z,57.1
2023-04-18T03:38:41.620Z,57.2
2023-04-18T03:39:42.633Z,57.2
2023-04-18T03:40:43.913Z,57.1
2023-04-18T03:41:44.592Z,57
2023-04-18T03:42:45.634Z,57
2023-04-18T03:43:46.649Z,57
2023-04-18T03:44:47.750Z,57.2
2023-04-18T03:45:48.756Z,57.2
2023-04-18T03:46:49.762Z,57.3
2023-04-18T03:47:50.733Z,57.3
2023-04-18T03:48:51.674Z,57.2
2023-04-18T03:49:52.613Z,57.5
2023-04-18T03:50:53.671Z,57.1
2023-04-18T03:51:54.852Z,57.3
2023-04-18T03:52:55.793Z,56.9
2023-04-18T03:53:56.751Z,57.7
2023-04-18T03:54:57.654Z,57.7
2023-04-18T03:55:58.595Z,57.8
2023-04-18T03:57:00.016Z,57.9
2023-04-18T03:58:00.676Z,57.8
2023-04-18T03:59:01.651Z,57.7
2023-04-18T04:00:02.742Z,57.6
2023-04-18T04:01:03.597Z,57.6
2023-04-18T04:02:04.839Z,57.2
2023-04-18T04:03:05.715Z,57.6
2023-04-18T04:04:06.811Z,57.9
2023-04-18T04:05:07.735Z,58.1
2023-04-18T04:06:08.755Z,58.2
2023-04-18T04:07:09.656Z,58.2
2023-04-18T04:08:10.704Z,58
2023-04-18T04:09:11.657Z,58.1
2023-04-18T04:10:12.678Z,58.1
2023-04-18T04:11:13.598Z,57.9
2023-04-18T04:12:14.756Z,58
2023-04-18T04:13:15.583Z,58
2023-04-18T04:14:16.780Z,58.1
2023-04-18T04:15:17.724Z,58.2
2023-04-18T04:16:18.734Z,58.1
2023-04-18T04:17:19.785Z,58.2
2023-04-18T04:18:20.779Z,58.4
2023-04-18T04:19:21.756Z,58.6
2023-04-18T04:20:23.066Z,58.6
2023-04-18T04:21:23.628Z,58.5
2023-04-18T04:22:24.640Z,57.9
2023-04-18T04:23:25.798Z,58.4
2023-04-18T04:24:26.807Z,58.5
2023-04-18T04:25:27.619Z,58.7
2023-04-18T04:26:28.624Z,58.7
2023-04-18T04:27:29.738Z,58.7
2023-04-18T04:28:30.741Z,58.7
2023-04-18T04:29:31.713Z,58.9
2023-04-18T04:30:32.782Z,58.9
2023-04-18T04:31:33.705Z,59
2023-04-18T04:32:34.999Z,59
2023-04-18T04:33:35.739Z,58.9
2023-04-18T04:34:36.652Z,58.8
2023-04-18T04:35:37.714Z,58.8
2023-04-18T04:36:38.654Z,58.8
2023-04-18T04:37:39.715Z,58.7
2023-04-18T04:38:40.679Z,58.7
2023-04-18T04:39:41.802Z,58.7
2023-04-18T04:40:43.518Z,58.8
2023-04-18T04:41:44.662Z,58.8
2023-04-18T04:42:45.915Z,58.8
2023-04-18T04:43:46.643Z,58.8
2023-04-18T04:44:47.776Z,58.6
2023-04-18T04:45:48.771Z,58.7
2023-04-18T04:46:49.603Z,58.5
2023-04-18T04:47:50.735Z,58.6
2023-04-18T04:48:51.842Z,58.8
2023-04-18T04:49:52.848Z,58.7
2023-04-18T04:50:53.687Z,58.7
2023-04-18T04:51:54.672Z,58.7
2023-04-18T04:52:55.834Z,58.8
2023-04-18T04:53:56.681Z,58.8
2023-04-18T04:54:58.134Z,58.7
2023-04-18T04:55:59.707Z,58.4
2023-04-18T04:57:00.791Z,58.5
2023-04-18T04:58:01.870Z,58.7
2023-04-18T04:59:02.786Z,58.7
2023-04-18T05:00:03.831Z,58.6
2023-04-18T05:01:04.755Z,58.6
2023-04-18T05:02:05.800Z,58.7
2023-04-18T05:03:07.458Z,58.8
2023-04-18T05:04:08.875Z,58.6
2023-04-18T05:05:09.786Z,58.6
2023-04-18T05:06:10.712Z,58.5
2023-04-18T05:07:11.942Z,58.4
2023-04-18T05:08:12.713Z,58.2
2023-04-18T05:09:13.690Z,58.1
2023-04-18T05:10:14.690Z,58.1
2023-04-18T05:11:15.729Z,58.2
2023-04-18T05:12:16.797Z,58.2
2023-04-18T05:13:17.762Z,58.2
2023-04-18T05:14:18.680Z,58.2
2023-04-18T05:15:19.956Z,58.3
2023-04-18T05:16:21.252Z,58.3
2023-04-18T05:17:22.840Z,58.3
2023-04-18T05:18:23.674Z,58.6
2023-04-18T05:19:24.784Z,58.4
2023-04-18T05:20:25.800Z,58.3
2023-04-18T05:21:26.655Z,58
2023-04-18T05:22:27.792Z,58
2023-04-18T05:23:28.666Z,58.2
2023-04-18T05:24:29.695Z,58.1
2023-04-18T05:25:30.736Z,58.1
2023-04-18T05:26:31.752Z,58.1
2023-04-18T05:27:32.674Z,58
2023-04-18T05:28:33.786Z,58.2
2023-04-18T05:29:34.941Z,58.4
2023-04-18T05:30:35.892Z,58.2
2023-04-18T05:31:36.917Z,58.3
2023-04-18T05:32:37.722Z,58.2
2023-04-18T05:33:38.697Z,58
2023-04-18T05:34:39.657Z,58
2023-04-18T05:35:40.793Z,58.5
2023-04-18T05:36:41.692Z,58.5
2023-04-18T05:37:42.961Z,58.6
2023-04-18T05:38:43.586Z,58.1
2023-04-18T05:39:44.695Z,58.5
2023-04-18T05:40:45.704Z,58.5
2023-04-18T05:41:46.735Z,58.4
2023-04-18T05:42:47.861Z,58.4
2023-04-18T05:43:58.071Z,58.1
2023-04-18T05:44:49.977Z,58.8
2023-04-18T05:45:50.845Z,59.1
2023-04-18T05:46:52.222Z,59.1
2023-04-18T05:47:53.960Z,58.7
2023-04-18T05:48:55.060Z,58.8
2023-04-18T05:49:56.917Z,59
2023-04-18T05:50:57.708Z,58.9
2023-04-18T05:51:58.736Z,59
2023-04-18T05:52:59.758Z,59.1
2023-04-18T05:54:00.735Z,59
2023-04-18T05:55:01.967Z,58.5
2023-04-18T05:56:02.836Z,58.5
2023-04-18T05:57:04.573Z,58.7
2023-04-18T05:58:04.735Z,58.6
2023-04-18T05:59:05.790Z,58.2
2023-04-18T06:00:06.838Z,58.4
2023-04-18T06:01:08.284Z,58.6
2023-04-18T06:02:10.085Z,58.6
2023-04-18T06:03:11.393Z,58.8
2023-04-18T06:04:12.295Z,59
2023-04-18T06:05:14.150Z,58.7
2023-04-18T06:06:15.360Z,58.6
2023-04-18T06:07:16.974Z,59
2023-04-18T06:08:17.762Z,59.1
2023-04-18T06:09:18.858Z,59.1
2023-04-18T06:10:20.260Z,59.1
2023-04-18T06:11:22.453Z,59.2
2023-04-18T06:12:23.719Z,59.2
2023-04-18T06:13:24.717Z,59.1
2023-04-18T06:14:25.878Z,59.1
2023-04-18T06:15:27.060Z,59.1
2023-04-18T06:16:27.841Z,59.1
2023-04-18T06:17:28.807Z,59
2023-04-18T06:18:29.812Z,59.1
2023-04-18T06:19:31.268Z,58.9
2023-04-18T06:20:32.784Z,58.9
2023-04-18T06:21:33.733Z,58.8
2023-04-18T06:22:34.639Z,58.8
2023-04-18T06:23:35.698Z,58.7
2023-04-18T06:24:36.802Z,58.6
2023-04-18T06:25:38.026Z,58.5
2023-04-18T06:26:39.434Z,58.5
2023-04-18T06:27:40.930Z,58.5
2023-04-18T06:28:41.918Z,58.4
2023-04-18T06:29:42.665Z,58.7
2023-04-18T06:30:44.196Z,59
2023-04-18T06:31:45.115Z,58.7
2023-04-18T06:32:46.821Z,58.5
2023-04-18T06:33:47.879Z,58.3
2023-04-18T06:34:48.778Z,58.1
2023-04-18T06:35:49.901Z,58
2023-04-18T06:36:50.814Z,58.6
2023-04-18T06:37:51.737Z,59
2023-04-18T06:38:53.183Z,59.1
2023-04-18T06:39:54.658Z,59.1
2023-04-18T06:40:55.834Z,58.9
2023-04-18T06:41:57.180Z,58.8
2023-04-18T06:42:58.874Z,58.6
2023-04-18T06:44:03.961Z,58.5
2023-04-18T06:45:00.840Z,58.6
2023-04-18T06:46:01.884Z,58.7
2023-04-18T06:47:02.862Z,58.5
2023-04-18T06:48:04.419Z,58.1
2023-04-18T06:49:05.837Z,58.2
2023-04-18T06:50:06.828Z,57.9
2023-04-18T06:51:08.025Z,58.1
2023-04-18T06:52:08.823Z,58
2023-04-18T06:53:09.913Z,58.1
2023-04-18T06:54:10.844Z,58.1
2023-04-18T06:55:11.888Z,58.1
2023-04-18T06:56:12.661Z,58
2023-04-18T06:57:13.863Z,58.1
2023-04-18T06:58:14.738Z,58.2
2023-04-18T06:59:15.725Z,58.1
2023-04-18T07:00:17.033Z,58.1
2023-04-18T07:01:17.881Z,58.1
2023-04-18T07:02:18.789Z,57.7
2023-04-18T07:03:20.007Z,57.9
2023-04-18T07:04:20.930Z,57.9
2023-04-18T07:05:21.779Z,57.6
2023-04-18T07:06:22.777Z,57.9
2023-04-18T07:07:23.756Z,58.4
2023-04-18T07:08:24.740Z,58.4
2023-04-18T07:09:25.942Z,58.1
2023-04-18T07:10:27.285Z,57.9
2023-04-18T07:11:28.737Z,57.9
2023-04-18T07:12:29.736Z,57.9
2023-04-18T07:13:30.855Z,58
2023-04-18T07:14:33.619Z,58.1
2023-04-18T07:15:32.713Z,58.2
2023-04-18T07:16:33.885Z,58.1
2023-04-18T07:17:34.981Z,58.3
2023-04-18T07:18:38.224Z,58.6
2023-04-18T07:19:36.954Z,58.6
2023-04-18T07:20:37.793Z,59.1
2023-04-18T07:21:38.782Z,59.2
2023-04-18T07:22:39.737Z,59.1
2023-04-18T07:23:40.933Z,59.3
2023-04-18T07:24:41.833Z,59.4
2023-04-18T07:25:42.932Z,59.1
2023-04-18T07:26:43.912Z,59.1
2023-04-18T07:27:44.795Z,59
2023-04-18T07:28:45.815Z,59
2023-04-18T07:29:46.770Z,58.8
2023-04-18T07:30:47.798Z,58.5
2023-04-18T07:31:48.852Z,58.2
2023-04-18T07:32:49.770Z,58.2
2023-04-18T07:33:51.252Z,58.2
2023-04-18T07:34:52.912Z,58.3
2023-04-18T07:35:53.767Z,58.2
2023-04-18T07:36:54.734Z,58.1
2023-04-18T07:37:55.706Z,58.1
2023-04-18T07:38:57.399Z,58.2
2023-04-18T07:39:58.816Z,58.1
2023-04-18T07:40:59.780Z,58
2023-04-18T07:42:01.057Z,57.9
2023-04-18T07:43:01.773Z,57.7
2023-04-18T07:44:02.806Z,57.4
2023-04-18T07:45:03.938Z,57.4
2023-04-18T07:46:04.799Z,56.9
2023-04-18T07:47:05.796Z,57.2
2023-04-18T07:48:06.809Z,57.2
2023-04-18T07:49:07.941Z,57.1
2023-04-18T07:50:09.559Z,57
2023-04-18T07:51:10.801Z,56.9
2023-04-18T07:52:12.139Z,56.4
2023-04-18T07:53:12.705Z,56.9
2023-04-18T07:54:13.843Z,57.2
2023-04-18T07:55:14.677Z,57.3
2023-04-18T07:56:16.056Z,57.4
2023-04-18T07:57:16.842Z,57.4
2023-04-18T07:58:17.902Z,57.6
2023-04-18T07:59:18.982Z,57.9
2023-04-18T08:00:19.943Z,58.1
2023-04-18T08:01:20.813Z,58.3
2023-04-18T08:02:22.068Z,58.2
2023-04-18T08:03:22.976Z,57.9
2023-04-18T08:04:23.874Z,57.2
2023-04-18T08:05:24.760Z,57.1
2023-04-18T08:06:25.726Z,57.5
2023-04-18T08:07:26.796Z,57.6
2023-04-18T08:08:27.898Z,57.3
2023-04-18T08:09:28.804Z,57.3
2023-04-18T08:10:29.897Z,57.3
2023-04-18T08:11:30.796Z,57.5
2023-04-18T08:12:31.806Z,57.6
2023-04-18T08:13:32.831Z,57.5
2023-04-18T08:14:33.778Z,57.4
2023-04-18T08:15:34.681Z,57.1
2023-04-18T08:16:35.838Z,58
2023-04-18T08:17:36.803Z,58.4
2023-04-18T08:18:37.815Z,58.7
2023-04-18T08:19:38.705Z,58.9
2023-04-18T08:20:40.217Z,59
2023-04-18T08:21:41.996Z,59.1
2023-04-18T08:22:57.351Z,59.3
2023-04-18T08:23:43.879Z,58.8
2023-04-18T08:24:57.397Z,59.1
2023-04-18T08:25:46.779Z,59.4
2023-04-18T08:26:47.804Z,59.2
2023-04-18T08:27:49.008Z,58.7
2023-04-18T08:28:49.919Z,58.9
2023-04-18T08:29:50.879Z,58.9
2023-04-18T08:30:51.910Z,58.6
2023-04-18T08:31:52.740Z,58.2
2023-04-18T08:32:53.925Z,58.1
2023-04-18T08:33:54.797Z,58
2023-04-18T08:34:56.122Z,57.7
2023-04-18T08:35:56.939Z,57.5
2023-04-18T08:36:57.936Z,57.3
2023-04-18T08:37:58.917Z,57.2
2023-04-18T08:38:59.780Z,57
2023-04-18T08:40:00.896Z,57
2023-04-18T08:41:01.867Z,57.3
2023-04-18T08:42:02.799Z,57.6
2023-04-18T08:43:03.819Z,57.9
2023-04-18T08:44:04.830Z,58.4
2023-04-18T08:45:05.904Z,58.6
2023-04-18T08:46:06.959Z,58.7
2023-04-18T08:47:07.896Z,58.3
2023-04-18T08:48:08.881Z,58.3
2023-04-18T08:49:11.841Z,58.7
2023-04-18T08:50:11.129Z,58.7
2023-04-18T08:51:11.936Z,58.6
2023-04-18T08:52:12.902Z,58.8
2023-04-18T08:53:13.844Z,58.4
2023-04-18T08:54:14.902Z,58.3
2023-04-18T08:55:15.801Z,58.2
2023-04-18T08:56:16.855Z,58.3
2023-04-18T08:57:17.726Z,58.3
2023-04-18T08:58:18.771Z,58.1
2023-04-18T08:59:19.752Z,58
2023-04-18T09:00:20.903Z,58
2023-04-18T09:01:22.067Z,57.9
2023-04-18T09:02:22.899Z,58.1
2023-04-18T09:03:23.844Z,58.2
2023-04-18T09:04:24.796Z,58.2
2023-04-18T09:05:26.376Z,58
2023-04-18T09:06:27.961Z,58
2023-04-18T09:07:28.854Z,58.2
2023-04-18T09:08:30.155Z,58.3
2023-04-18T09:09:30.892Z,58.8
2023-04-18T09:10:31.794Z,59
2023-04-18T09:11:32.794Z,58.9
2023-04-18T09:12:33.772Z,59
2023-04-18T09:13:34.896Z,58.8
2023-04-18T09:14:35.819Z,58.6
2023-04-18T09:15:36.770Z,58.2
2023-04-18T09:16:37.787Z,57.9
2023-04-18T09:17:38.855Z,57.7
2023-04-18T09:18:39.748Z,57.6
2023-04-18T09:19:40.936Z,57.8
2023-04-18T09:20:42.192Z,57.7
2023-04-18T09:21:43.094Z,57.6
2023-04-18T09:22:44.175Z,57.4
2023-04-18T09:23:44.851Z,57.3
2023-04-18T09:24:45.967Z,57.3
2023-04-18T09:25:47.009Z,57.7
2023-04-18T09:26:47.832Z,57.7
2023-04-18T09:27:48.822Z,57.6
2023-04-18T09:28:50.833Z,57.8
2023-04-18T09:29:50.865Z,58.2
2023-04-18T09:30:52.499Z,58.4
2023-04-18T09:31:54.197Z,58.3
2023-04-18T09:32:54.869Z,58.5
2023-04-18T09:33:55.798Z,58.3
2023-04-18T09:34:57.697Z,58.1
2023-04-18T09:35:59.186Z,57.9
2023-04-18T09:36:59.909Z,58
2023-04-18T09:38:00.856Z,57.9
2023-04-18T09:39:01.837Z,57.8
2023-04-18T09:40:02.801Z,57.6
2023-04-18T09:41:03.967Z,57.5
2023-04-18T09:42:05.017Z,57.4
2023-04-18T09:43:05.966Z,57.4
2023-04-18T09:44:06.817Z,57.4
2023-04-18T09:45:07.929Z,57.2
2023-04-18T09:46:09.008Z,57.1
2023-04-18T09:47:09.884Z,56.9
2023-04-18T09:48:10.911Z,56.8
2023-04-18T09:49:11.934Z,56.8
2023-04-18T09:50:12.865Z,57.5
2023-04-18T09:51:13.887Z,58
2023-04-18T09:52:14.845Z,58
2023-04-18T09:53:15.819Z,57.9
2023-04-18T09:54:16.931Z,57.6
2023-04-18T09:55:17.860Z,57.1
2023-04-18T09:56:18.875Z,56.7
2023-04-18T09:57:19.856Z,56.3
2023-04-18T09:58:20.802Z,56.1
2023-04-18T09:59:21.951Z,56
2023-04-18T10:00:23.000Z,55.9
2023-04-18T10:01:23.971Z,55.5
2023-04-18T10:02:25.113Z,55.3
2023-04-18T10:03:26.003Z,54.6
2023-04-18T10:04:26.902Z,54.6
2023-04-18T10:05:28.034Z,55.2
2023-04-18T10:06:29.054Z,55.5
2023-04-18T10:07:30.016Z,55.6
2023-04-18T10:08:30.956Z,55.3
2023-04-18T10:09:31.908Z,55.1
2023-04-18T10:10:33.152Z,54.9
2023-04-18T10:11:33.902Z,54.4
2023-04-18T10:12:34.833Z,54.6
2023-04-18T10:13:35.815Z,54.7
2023-04-18T10:14:36.972Z,54.6
2023-04-18T10:15:38.153Z,54.6
2023-04-18T10:16:39.167Z,54.5
2023-04-18T10:17:44.635Z,54.2
2023-04-18T10:18:41.034Z,54.1
2023-04-18T10:19:42.032Z,54.4
2023-04-18T10:20:43.072Z,54.4
2023-04-18T10:21:44.399Z,54.2
2023-04-18T10:22:46.073Z,53.9
2023-04-18T10:23:47.152Z,53.8
2023-04-18T10:24:47.831Z,53.6
2023-04-18T10:25:48.819Z,53.5
2023-04-18T10:26:50.086Z,53.4
2023-04-18T10:27:50.856Z,53.3
2023-04-18T10:28:52.013Z,53.1
2023-04-18T10:29:53.071Z,53.3
2023-04-18T10:30:53.973Z,53.2
2023-04-18T10:31:54.986Z,53.2
2023-04-18T10:32:56.044Z,53.2
2023-04-18T10:34:04.486Z,53.2
2023-04-18T10:34:58.008Z,53.1
2023-04-18T10:35:58.914Z,52.7
2023-04-18T10:36:59.948Z,52.2
2023-04-18T10:38:00.884Z,52.1
2023-04-18T10:39:01.785Z,51.8
2023-04-18T10:40:02.907Z,52.1
2023-04-18T10:41:03.853Z,52.1
2023-04-18T10:42:04.896Z,51.5
2023-04-18T10:43:06.279Z,52
2023-04-18T10:44:08.601Z,52.2
2023-04-18T10:45:09.118Z,51.8
2023-04-18T10:46:17.291Z,51.4
2023-04-18T10:47:11.049Z,51.9
2023-04-18T10:48:11.919Z,52.3
2023-04-18T10:49:12.989Z,52.7
2023-04-18T10:50:13.879Z,52.9
2023-04-18T10:51:14.888Z,52.9
2023-04-18T10:52:16.008Z,52.5
2023-04-18T10:53:16.919Z,52.5
2023-04-18T10:54:18.104Z,52.5
2023-04-18T10:55:18.908Z,52.3
2023-04-18T10:56:19.797Z,52
2023-04-18T10:57:20.961Z,52
2023-04-18T10:58:22.216Z,52.1
2023-04-18T10:59:23.038Z,52.3
2023-04-18T11:00:23.843Z,52.2
2023-04-18T11:01:25.049Z,52.3
2023-04-18T11:02:26.033Z,51.6
2023-04-18T11:03:26.988Z,51.8
2023-04-18T11:04:28.014Z,51.7
2023-04-18T11:05:28.876Z,51.6
2023-04-18T11:06:30.073Z,51.7
2023-04-18T11:07:30.846Z,51.8
2023-04-18T11:08:31.899Z,51.6
2023-04-18T11:09:32.865Z,51.7
2023-04-18T11:10:33.917Z,51.7
2023-04-18T11:11:34.877Z,51.8
2023-04-18T11:12:36.370Z,51.8
2023-04-18T11:13:37.041Z,51.8
2023-04-18T11:14:37.865Z,51.7
2023-04-18T11:15:38.945Z,51.5
2023-04-18T11:16:40.015Z,51.2
2023-04-18T11:17:40.962Z,51.4
2023-04-18T11:18:41.876Z,51.4
2023-04-18T11:19:42.868Z,51.6
2023-04-18T11:20:43.940Z,51.9
2023-04-18T11:21:44.916Z,51.9
2023-04-18T11:22:45.911Z,51.6
2023-04-18T11:23:46.826Z,51.4
2023-04-18T11:24:47.908Z,51.2
2023-04-18T11:25:49.136Z,51
2023-04-18T11:26:49.845Z,50.7
2023-04-18T11:27:51.278Z,50.3
2023-04-18T11:28:52.132Z,49.9
2023-04-18T11:29:53.001Z,49.4
2023-04-18T11:30:54.060Z,49.2
2023-04-18T11:31:58.405Z,49.5
2023-04-18T11:32:55.957Z,49.4
2023-04-18T11:33:56.890Z,49.4
2023-04-18T11:34:57.988Z,49.2
2023-04-18T11:35:59.680Z,49.3
2023-04-18T11:37:03.217Z,49.5
2023-04-18T11:38:04.028Z,49.7
2023-04-18T11:39:04.900Z,49.7
2023-04-18T11:40:05.937Z,49.6
2023-04-18T11:41:06.917Z,49.5
2023-04-18T11:42:07.900Z,49.2
2023-04-18T11:43:08.866Z,49.3
2023-04-18T11:44:09.881Z,49.9
2023-04-18T11:45:11.040Z,50.3
2023-04-18T11:46:12.025Z,50.5
2023-04-18T11:47:13.300Z,50.6
2023-04-18T11:48:15.617Z,50.5
2023-04-18T11:49:16.905Z,50.7
2023-04-18T11:50:18.539Z,50.8
2023-04-18T11:51:20.122Z,51
2023-04-18T11:52:21.225Z,51.3
2023-04-18T11:53:22.256Z,51.4
2023-04-18T11:54:23.111Z,51.5
2023-04-18T11:55:23.888Z,52
2023-04-18T11:56:27.559Z,52.3
2023-04-18T11:57:30.005Z,52.5
2023-04-18T11:58:30.956Z,52.3
2023-04-18T11:59:31.874Z,52.2
2023-04-18T12:00:32.885Z,52.3
2023-04-18T12:01:33.855Z,52.5
2023-04-18T12:02:35.030Z,52.5
2023-04-18T12:03:36.054Z,52.5
2023-04-18T12:04:37.086Z,52.4
2023-04-18T12:05:38.552Z,52
2023-04-18T12:06:38.875Z,51.6
2023-04-18T12:07:40.094Z,51.8
2023-04-18T12:08:41.119Z,52.1
2023-04-18T12:09:41.916Z,52.3
2023-04-18T12:10:43.180Z,52.7
2023-04-18T12:11:44.003Z,52.5
2023-04-18T12:12:44.904Z,52.2
2023-04-18T12:13:45.955Z,51.8
2023-04-18T12:14:46.895Z,51.7
2023-04-18T12:15:48.012Z,51.6
2023-04-18T12:16:49.416Z,51.7
2023-04-18T12:17:51.108Z,51.6
2023-04-18T12:18:51.933Z,51.7
2023-04-18T12:19:52.945Z,51.2
2023-04-18T12:20:53.875Z,51.3
2023-04-18T12:21:55.040Z,51.3
2023-04-18T12:22:56.002Z,51.6
2023-04-18T12:23:57.202Z,51.7
2023-04-18T12:24:58.695Z,51.6
2023-04-18T12:26:00.173Z,51.3
2023-04-18T12:27:00.997Z,51
2023-04-18T12:28:01.977Z,50.8
2023-04-18T12:29:02.982Z,50.9
2023-04-18T12:30:04.136Z,50.9
2023-04-18T12:31:04.899Z,50.7
2023-04-18T12:32:06.186Z,50.7
2023-04-18T12:33:07.108Z,50.6
2023-04-18T12:34:07.925Z,50.9
2023-04-18T12:35:09.332Z,51
2023-04-18T12:36:11.017Z,50.8
2023-04-18T12:37:11.891Z,50.5
2023-04-18T12:38:12.895Z,50.7
2023-04-18T12:39:14.042Z,51
2023-04-18T12:40:15.350Z,50.8
2023-04-18T12:41:17.150Z,50.4
2023-04-18T12:42:17.886Z,50
2023-04-18T12:43:18.803Z,49.8
2023-04-18T12:44:19.982Z,49.9
2023-04-18T12:45:21.082Z,49.8
2023-04-18T12:46:22.138Z,49.8
2023-04-18T12:47:22.957Z,49.9
2023-04-18T12:48:23.890Z,50.4
2023-04-18T12:49:24.935Z,50.6
2023-04-18T12:50:25.897Z,50.9
2023-04-18T12:51:26.874Z,51
2023-04-18T12:52:27.931Z,51.1
2023-04-18T12:53:29.155Z,51.2
2023-04-18T12:54:30.061Z,50.9
2023-04-18T12:55:31.068Z,50.5
2023-04-18T12:56:31.850Z,50.6
2023-04-18T12:57:32.858Z,50.6
2023-04-18T12:58:33.853Z,50.7
2023-04-18T12:59:35.369Z,50.9
2023-04-18T13:00:37.312Z,50.6
2023-04-18T13:01:38.100Z,49.9
2023-04-18T13:02:49.912Z,50.6
2023-04-18T13:03:56.681Z,50.6
2023-04-18T13:04:54.152Z,49.4
2023-04-18T13:05:55.003Z,48.9
2023-04-18T13:06:56.173Z,48.7
2023-04-18T13:08:05.065Z,48.7
2023-04-18T13:08:58.228Z,48.3
2023-04-18T13:09:59.104Z,47.7
2023-04-18T13:10:59.987Z,47.6
2023-04-18T13:12:01.121Z,47.2
2023-04-18T13:13:01.994Z,47.5
2023-04-18T13:14:03.575Z,47.3
2023-04-18T13:15:05.149Z,47.1
2023-04-18T13:16:06.099Z,46.8
2023-04-18T13:17:07.125Z,46.6
2023-04-18T13:18:08.171Z,46.4
2023-04-18T13:19:08.920Z,46.5
2023-04-18T13:20:10.112Z,46.4
2023-04-18T13:21:11.026Z,46.3
2023-04-18T13:22:11.882Z,46.1
2023-04-18T13:23:13.007Z,45.9
2023-04-18T13:24:13.992Z,45.7
2023-04-18T13:25:15.053Z,45.4
2023-04-18T13:26:15.986Z,45.5
2023-04-18T13:27:16.806Z,45.6
2023-04-18T13:28:17.885Z,45.7
2023-04-18T13:29:18.907Z,45.5
2023-04-18T13:30:20.114Z,45.5
2023-04-18T13:31:21.077Z,45.1
2023-04-18T13:32:21.984Z,45.2
2023-04-18T13:33:22.936Z,45.3
2023-04-18T13:34:23.942Z,45.2
2023-04-18T13:35:25.081Z,45.5
2023-04-18T13:36:25.845Z,45.3
2023-04-18T13:37:26.931Z,45.1